createdAt,value
2022-12-01T00:01:02.174Z,102845.13
2022-12-01T00:03:32.753Z,102841.44
2022-12-01T00:06:04.656Z,102845.13
2022-12-01T00:08:32.063Z,102843.25
2022-12-01T00:11:14.204Z,102838.75
2022-12-01T00:13:40.734Z,102839.38
2022-12-01T00:16:14.803Z,102840.88
2022-12-01T00:18:41.448Z,102845.53
2022-12-01T00:21:14.576Z,102840.94
2022-12-01T00:23:44.783Z,102837.56
2022-12-01T00:26:11.324Z,102838.66
2022-12-01T00:28:37.844Z,102842.50
2022-12-01T00:31:08.143Z,102838.97
2022-12-01T00:33:34.856Z,102845.25
2022-12-01T00:36:01.915Z,102845.84
2022-12-01T00:38:28.950Z,102842.25
2022-12-01T00:40:55.514Z,102837.91
2022-12-01T00:43:22.052Z,102836.09
2022-12-01T00:45:48.666Z,102837.91
2022-12-01T00:48:15.265Z,102832.34
2022-12-01T00:50:41.852Z,102837.69
2022-12-01T00:53:08.572Z,102827.09
2022-12-01T00:55:35.135Z,102832.22
2022-12-01T00:58:01.644Z,102843.00
2022-12-01T01:00:28.179Z,102837.53
2022-12-01T01:02:54.821Z,102842.88
2022-12-01T01:05:21.369Z,102840.88
2022-12-01T01:07:47.939Z,102843.84
2022-12-01T01:10:14.511Z,102848.47
2022-12-01T01:12:41.028Z,102840.31
2022-12-01T01:15:07.935Z,102842.38
2022-12-01T01:17:34.779Z,102847.44
2022-12-01T01:20:01.400Z,102842.91
2022-12-01T01:22:27.928Z,102840.28
2022-12-01T01:24:54.464Z,102851.84
2022-12-01T01:27:21.007Z,102845.78
2022-12-01T01:29:47.948Z,102865.84
2022-12-01T01:32:14.754Z,102857.97
2022-12-01T01:34:41.267Z,102857.09
2022-12-01T01:37:07.810Z,102853.63
2022-12-01T01:39:34.404Z,102862.31
2022-12-01T01:42:00.917Z,102862.50
2022-12-01T01:44:52.073Z,102858.13
2022-12-01T01:47:25.734Z,102859.78
2022-12-01T01:49:53.532Z,102863.31
2022-12-01T01:52:20.612Z,102859.03
2022-12-01T01:54:50.623Z,102861.31
2022-12-01T01:57:23.047Z,102861.47
2022-12-01T01:59:54.240Z,102863.31
2022-12-01T02:02:21.086Z,102872.13
2022-12-01T02:04:51.707Z,102868.66
2022-12-01T02:07:19.410Z,102867.84
2022-12-01T02:09:46.565Z,102859.63
2022-12-01T02:12:34.305Z,102869.59
2022-12-01T02:15:13.175Z,102864.00
2022-12-01T02:18:04.399Z,102860.47
2022-12-01T02:20:43.109Z,102866.69
2022-12-01T02:23:37.735Z,102854.13
2022-12-01T02:26:06.805Z,102858.28
2022-12-01T02:28:54.902Z,102862.06
2022-12-01T02:31:21.385Z,102852.34
2022-12-01T02:34:03.079Z,102851.63
2022-12-01T02:36:35.843Z,102842.53
2022-12-01T02:39:14.798Z,102844.34
2022-12-01T02:41:51.321Z,102852.50
2022-12-01T02:44:25.388Z,102852.34
2022-12-01T02:46:59.198Z,102844.69
2022-12-01T02:49:42.232Z,102846.00
2022-12-01T02:52:10.186Z,102835.28
2022-12-01T02:54:37.138Z,102847.97
2022-12-01T02:57:03.951Z,102843.44
2022-12-01T02:59:30.480Z,102847.59
2022-12-01T03:02:15.646Z,102845.19
2022-12-01T03:05:04.615Z,102841.63
2022-12-01T03:07:46.434Z,102849.50
2022-12-01T03:10:40.103Z,102844.94
2022-12-01T03:13:21.758Z,102845.97
2022-12-01T03:16:06.615Z,102843.09
2022-12-01T03:18:54.732Z,102845.88
2022-12-01T03:21:33.778Z,102851.22
2022-12-01T03:24:04.647Z,102845.78
2022-12-01T03:26:33.159Z,102851.13
2022-12-01T03:29:03.963Z,102846.75
2022-12-01T03:31:37.970Z,102845.97
2022-12-01T03:34:08.181Z,102837.19
2022-12-01T03:36:42.068Z,102844.28
2022-12-01T03:39:12.948Z,102837.03
2022-12-01T03:41:47.670Z,102844.19
2022-12-01T03:44:29.439Z,102847.69
2022-12-01T03:47:02.807Z,102840.66
2022-12-01T03:49:29.612Z,102841.13
2022-12-01T03:51:59.141Z,102835.22
2022-12-01T03:54:53.806Z,102844.19
2022-12-01T03:57:26.762Z,102836.44
2022-12-01T03:59:53.591Z,102836.13
2022-12-01T04:02:20.168Z,102849.25
2022-12-01T04:04:46.726Z,102838.81
2022-12-01T04:07:14.322Z,102846.81
2022-12-01T04:09:41.789Z,102852.81
2022-12-01T04:12:29.394Z,102851.81
2022-12-01T04:14:57.439Z,102851.31
2022-12-01T04:17:24.764Z,102854.38
2022-12-01T04:19:51.587Z,102858.22
2022-12-01T04:22:18.502Z,102853.75
2022-12-01T04:24:45.111Z,102859.88
2022-12-01T04:27:11.736Z,102866.88
2022-12-01T04:29:38.279Z,102863.31
2022-12-01T04:32:05.043Z,102858.66
2022-12-01T04:34:31.575Z,102857.94
2022-12-01T04:36:58.153Z,102848.88
2022-12-01T04:39:24.720Z,102851.50
2022-12-01T04:41:51.256Z,102853.59
2022-12-01T04:44:17.976Z,102849.84
2022-12-01T04:46:44.562Z,102854.31
2022-12-01T04:49:11.108Z,102856.03
2022-12-01T04:51:37.682Z,102856.13
2022-12-01T04:54:05.817Z,102855.91
2022-12-01T04:56:33.586Z,102860.44
2022-12-01T04:59:00.657Z,102860.44
2022-12-01T05:01:27.234Z,102844.41
2022-12-01T05:03:53.888Z,102849.13
2022-12-01T05:06:26.545Z,102856.19
2022-12-01T05:08:56.787Z,102849.03
2022-12-01T05:11:23.859Z,102862.09
2022-12-01T05:13:50.595Z,102848.88
2022-12-01T05:16:20.006Z,102854.44
2022-12-01T05:18:51.015Z,102853.25
2022-12-01T05:21:18.178Z,102860.50
2022-12-01T05:23:45.664Z,102864.44
2022-12-01T05:26:12.358Z,102863.09
2022-12-01T05:28:40.816Z,102861.16
2022-12-01T05:31:07.424Z,102850.41
2022-12-01T05:33:33.985Z,102860.50
2022-12-01T05:36:00.607Z,102861.34
2022-12-01T05:38:27.151Z,102864.06
2022-12-01T05:40:55.000Z,102868.63
2022-12-01T05:43:28.275Z,102866.81
2022-12-01T05:45:56.156Z,102872.50
2022-12-01T05:48:23.150Z,102865.16
2022-12-01T05:50:49.672Z,102863.50
2022-12-01T05:53:16.580Z,102864.97
2022-12-01T05:55:43.148Z,102861.25
2022-12-01T05:58:09.763Z,102872.91
2022-12-01T06:00:42.277Z,102870.13
2022-12-01T06:03:12.051Z,102865.63
2022-12-01T06:05:39.048Z,102863.19
2022-12-01T06:08:05.703Z,102859.44
2022-12-01T06:10:32.252Z,102853.94
2022-12-01T06:12:58.772Z,102857.63
2022-12-01T06:15:26.399Z,102860.28
2022-12-01T06:17:52.989Z,102859.66
2022-12-01T06:20:19.545Z,102861.00
2022-12-01T06:22:46.068Z,102868.41
2022-12-01T06:25:12.596Z,102868.53
2022-12-01T06:27:39.154Z,102871.63
2022-12-01T06:30:06.558Z,102861.38
2022-12-01T06:32:33.493Z,102856.03
2022-12-01T06:35:00.016Z,102856.63
2022-12-01T06:37:27.616Z,102864.78
2022-12-01T06:39:54.803Z,102860.44
2022-12-01T06:42:21.320Z,102862.09
2022-12-01T06:44:47.882Z,102878.78
2022-12-01T06:47:15.818Z,102873.66
2022-12-01T06:49:42.347Z,102874.25
2022-12-01T06:52:09.655Z,102871.84
2022-12-01T06:54:37.479Z,102878.63
2022-12-01T06:57:04.258Z,102891.19
2022-12-01T06:59:31.075Z,102882.06
2022-12-01T07:01:58.115Z,102883.97
2022-12-01T07:04:24.711Z,102880.81
2022-12-01T07:06:51.260Z,102883.63
2022-12-01T07:09:17.822Z,102888.25
2022-12-01T07:11:44.361Z,102891.22
2022-12-01T07:14:21.943Z,102895.09
2022-12-01T07:16:48.496Z,102898.41
2022-12-01T07:19:15.042Z,102898.84
2022-12-01T07:21:41.580Z,102896.63
2022-12-01T07:24:08.382Z,102903.28
2022-12-01T07:26:34.923Z,102907.16
2022-12-01T07:29:01.445Z,102898.50
2022-12-01T07:31:28.004Z,102911.97
2022-12-01T07:33:54.656Z,102904.91
2022-12-01T07:36:21.189Z,102918.41
2022-12-01T07:38:47.938Z,102914.84
2022-12-01T07:41:16.294Z,102912.97
2022-12-01T07:43:43.055Z,102912.78
2022-12-01T07:46:24.169Z,102923.56
2022-12-01T07:48:51.676Z,102909.41
2022-12-01T07:51:18.638Z,102918.28
2022-12-01T07:53:46.244Z,102921.84
2022-12-01T07:56:13.066Z,102915.63
2022-12-01T07:58:39.590Z,102925.38
2022-12-01T08:01:07.994Z,102921.66
2022-12-01T08:03:34.754Z,102927.00
2022-12-01T08:06:02.075Z,102921.88
2022-12-01T08:08:30.415Z,102908.34
2022-12-01T08:11:01.611Z,102920.81
2022-12-01T08:13:28.436Z,102921.66
2022-12-01T08:15:55.010Z,102925.03
2022-12-01T08:18:22.912Z,102936.81
2022-12-01T08:20:50.231Z,102928.47
2022-12-01T08:23:16.758Z,102931.31
2022-12-01T08:25:43.305Z,102928.47
2022-12-01T08:28:09.896Z,102927.56
2022-12-01T08:30:36.429Z,102924.91
2022-12-01T08:33:03.018Z,102939.13
2022-12-01T08:35:29.604Z,102933.84
2022-12-01T08:37:56.133Z,102933.81
2022-12-01T08:40:22.743Z,102930.28
2022-12-01T08:42:49.318Z,102937.38
2022-12-01T08:45:15.950Z,102943.59
2022-12-01T08:47:42.483Z,102935.63
2022-12-01T08:50:09.318Z,102935.56
2022-12-01T08:52:35.847Z,102931.25
2022-12-01T08:55:02.611Z,102932.94
2022-12-01T08:57:29.935Z,102931.16
2022-12-01T08:59:56.542Z,102930.28
2022-12-01T09:02:23.523Z,102933.84
2022-12-01T09:04:50.829Z,102935.63
2022-12-01T09:07:22.979Z,102933.91
2022-12-01T09:09:52.932Z,102931.31
2022-12-01T09:12:19.779Z,102934.06
2022-12-01T09:14:48.361Z,102941.00
2022-12-01T09:17:15.817Z,102937.38
2022-12-01T09:19:43.066Z,102933.06
2022-12-01T09:22:10.575Z,102944.66
2022-12-01T09:24:37.183Z,102947.47
2022-12-01T09:27:04.456Z,102946.78
2022-12-01T09:29:31.279Z,102947.00
2022-12-01T09:31:58.985Z,102944.91
2022-12-01T09:34:26.387Z,102948.50
2022-12-01T09:36:56.550Z,102942.09
2022-12-01T09:39:23.386Z,102946.72
2022-12-01T09:41:59.916Z,102938.25
2022-12-01T09:44:41.286Z,102937.59
2022-12-01T09:47:34.485Z,102939.44
2022-12-01T09:50:10.914Z,102934.91
2022-12-01T09:52:44.792Z,102937.41
2022-12-01T09:55:19.913Z,102936.66
2022-12-01T09:57:48.311Z,102937.50
2022-12-01T10:00:18.114Z,102934.97
2022-12-01T10:02:49.534Z,102932.09
2022-12-01T10:05:23.040Z,102929.53
2022-12-01T10:07:55.061Z,102934.72
2022-12-01T10:10:34.906Z,102923.22
2022-12-01T10:13:01.640Z,102927.63
2022-12-01T10:15:36.962Z,102920.22
2022-12-01T10:18:22.014Z,102928.31
2022-12-01T10:21:03.755Z,102913.69
2022-12-01T10:24:21.337Z,102919.91
2022-12-01T10:26:59.652Z,102915.31
2022-12-01T10:29:47.588Z,102904.00
2022-12-01T10:32:19.319Z,102912.22
2022-12-01T10:34:47.865Z,102907.56
2022-12-01T10:37:20.203Z,102908.59
2022-12-01T10:39:49.795Z,102904.00
2022-12-01T10:42:32.625Z,102905.69
2022-12-01T10:45:10.134Z,102904.84
2022-12-01T10:47:37.372Z,102899.41
2022-12-01T10:50:04.369Z,102903.84
2022-12-01T10:52:40.564Z,102898.41
2022-12-01T10:55:35.547Z,102891.25
2022-12-01T10:58:09.513Z,102892.31
2022-12-01T11:00:59.152Z,102884.38
2022-12-01T11:03:29.157Z,102883.22
2022-12-01T11:05:58.196Z,102885.91
2022-12-01T11:08:39.554Z,102887.78
2022-12-01T11:11:06.825Z,102894.13
2022-12-01T11:13:36.962Z,102887.66
2022-12-01T11:16:06.044Z,102892.22
2022-12-01T11:18:37.863Z,102880.53
2022-12-01T11:21:06.087Z,102882.09
2022-12-01T11:23:35.841Z,102881.38
2022-12-01T11:26:06.491Z,102883.94
2022-12-01T11:28:34.205Z,102884.13
2022-12-01T11:31:03.967Z,102887.94
2022-12-01T11:33:43.329Z,102880.13
2022-12-01T11:36:14.717Z,102877.50
2022-12-01T11:38:42.790Z,102879.59
2022-12-01T11:41:43.423Z,102872.56
2022-12-01T11:47:23.165Z,102872.69
2022-12-01T11:49:57.440Z,102874.97
2022-12-01T11:52:46.251Z,102868.88
2022-12-01T11:55:12.697Z,102871.47
2022-12-01T11:57:41.815Z,102874.25
2022-12-01T12:00:17.494Z,102872.56
2022-12-01T12:02:49.926Z,102870.03
2022-12-01T12:05:37.835Z,102865.34
2022-12-01T12:08:13.846Z,102866.88
2022-12-01T12:10:55.530Z,102875.84
2022-12-01T12:13:53.719Z,102864.19
2022-12-01T12:16:24.546Z,102857.97
2022-12-01T12:19:01.766Z,102859.13
2022-12-01T12:22:09.867Z,102852.78
2022-12-01T12:24:57.008Z,102856.38
2022-12-01T12:27:38.403Z,102856.38
2022-12-01T12:30:27.043Z,102858.59
2022-12-01T12:33:18.926Z,102851.50
2022-12-01T12:36:10.291Z,102844.41
2022-12-01T12:38:52.494Z,102851.66
2022-12-01T12:41:21.742Z,102848.22
2022-12-01T12:44:26.502Z,102845.91
2022-12-01T12:47:14.688Z,102851.13
2022-12-01T12:49:52.804Z,102847.41
2022-12-01T12:52:46.530Z,102854.59
2022-12-01T12:55:15.423Z,102855.59
2022-12-01T12:57:49.422Z,102857.44
2022-12-01T13:00:22.593Z,102851.28
2022-12-01T13:02:58.326Z,102852.13
2022-12-01T13:05:41.678Z,102854.63
2022-12-01T13:08:12.441Z,102856.44
2022-12-01T13:10:58.055Z,102847.47
2022-12-01T13:13:31.004Z,102849.31
2022-12-01T13:15:58.880Z,102843.81
2022-12-01T13:18:53.704Z,102849.16
2022-12-01T13:21:22.536Z,102850.81
2022-12-01T13:23:50.155Z,102849.25
2022-12-01T13:26:19.073Z,102856.25
2022-12-01T13:28:56.585Z,102844.69
2022-12-01T13:31:23.556Z,102848.22
2022-12-01T13:34:01.348Z,102846.31
2022-12-01T13:39:27.938Z,102845.44
2022-12-01T13:42:25.454Z,102840.16
2022-12-01T13:44:55.867Z,102845.41
2022-12-01T13:47:39.368Z,102852.59
2022-12-01T13:50:33.425Z,102857.13
2022-12-01T13:53:17.906Z,102859.78
2022-12-01T13:55:58.110Z,102864.13
2022-12-01T13:58:46.788Z,102860.44
2022-12-01T14:01:22.876Z,102859.41
2022-12-01T14:04:11.609Z,102852.22
2022-12-01T14:06:49.481Z,102861.28
2022-12-01T14:09:38.075Z,102861.09
2022-12-01T14:12:30.317Z,102853.09
2022-12-01T14:15:02.181Z,102854.72
2022-12-01T14:17:31.900Z,102852.09
2022-12-01T14:20:20.108Z,102853.06
2022-12-01T14:22:50.276Z,102850.53
2022-12-01T14:25:19.739Z,102843.22
2022-12-01T14:27:48.148Z,102845.94
2022-12-01T14:30:39.437Z,102846.66
2022-12-01T14:33:39.999Z,102842.41
2022-12-01T14:36:32.116Z,102843.16
2022-12-01T14:38:58.864Z,102852.22
2022-12-01T14:41:28.688Z,102850.41
2022-12-01T14:44:04.932Z,102846.78
2022-12-01T14:46:56.651Z,102857.56
2022-12-01T14:49:25.986Z,102854.78
2022-12-01T14:52:02.978Z,102852.03
2022-12-01T14:54:32.880Z,102847.63
2022-12-01T14:57:06.236Z,102847.69
2022-12-01T14:59:34.716Z,102854.00
2022-12-01T15:02:09.079Z,102850.38
2022-12-01T15:04:56.439Z,102855.66
2022-12-01T15:07:23.095Z,102852.09
2022-12-01T15:10:01.789Z,102851.19
2022-12-01T15:12:29.633Z,102847.53
2022-12-01T15:14:56.204Z,102854.78
2022-12-01T15:17:34.465Z,102848.66
2022-12-01T15:20:01.041Z,102854.06
2022-12-01T15:22:30.649Z,102855.97
2022-12-01T15:25:14.888Z,102855.09
2022-12-01T15:27:43.113Z,102852.34
2022-12-01T15:30:13.379Z,102846.88
2022-12-01T15:32:43.048Z,102853.25
2022-12-01T15:35:21.392Z,102844.38
2022-12-01T15:37:48.354Z,102847.91
2022-12-01T15:43:07.367Z,102847.72
2022-12-01T15:45:48.059Z,102852.31
2022-12-01T15:48:16.686Z,102854.16
2022-12-01T15:50:46.697Z,102852.25
2022-12-01T15:53:29.373Z,102857.69
2022-12-01T15:55:59.232Z,102855.06
2022-12-01T15:58:30.141Z,102858.53
2022-12-01T16:01:05.660Z,102859.63
2022-12-01T16:03:34.840Z,102853.38
2022-12-01T16:06:01.392Z,102858.91
2022-12-01T16:08:28.266Z,102866.94
2022-12-01T16:11:15.653Z,102864.41
2022-12-01T16:13:56.560Z,102872.56
2022-12-01T16:16:45.950Z,102867.16
2022-12-01T16:19:12.489Z,102865.31
2022-12-01T16:21:47.665Z,102859.97
2022-12-01T16:24:17.506Z,102861.69
2022-12-01T16:27:08.211Z,102867.22
2022-12-01T16:29:51.548Z,102865.50
2022-12-01T16:32:21.939Z,102865.44
2022-12-01T16:34:50.303Z,102862.72
2022-12-01T16:37:16.924Z,102861.84
2022-12-01T16:39:43.452Z,102865.41
2022-12-01T16:42:13.084Z,102862.81
2022-12-01T16:44:39.811Z,102868.94
2022-12-01T16:47:26.635Z,102869.00
2022-12-01T16:49:53.249Z,102871.47
2022-12-01T16:55:26.717Z,102872.50
2022-12-01T16:57:53.293Z,102878.72
2022-12-01T17:00:20.173Z,102880.28
2022-12-01T17:02:46.823Z,102868.66
2022-12-01T17:05:13.423Z,102878.53
2022-12-01T17:07:40.030Z,102879.38
2022-12-01T17:10:07.360Z,102881.16
2022-12-01T17:12:33.884Z,102889.94
2022-12-01T17:15:00.457Z,102884.50
2022-12-01T17:17:28.463Z,102890.88
2022-12-01T17:19:55.052Z,102890.75
2022-12-01T17:22:21.672Z,102885.31
2022-12-01T17:24:48.432Z,102887.94
2022-12-01T17:27:15.393Z,102887.88
2022-12-01T17:29:46.088Z,102891.44
2022-12-01T17:32:13.761Z,102885.25
2022-12-01T17:34:40.551Z,102878.81
2022-12-01T17:37:07.765Z,102881.56
2022-12-01T17:39:34.339Z,102879.59
2022-12-01T17:42:00.897Z,102883.19
2022-12-01T17:44:27.423Z,102891.25
2022-12-01T17:46:54.092Z,102894.88
2022-12-01T17:49:20.826Z,102893.16
2022-12-01T17:51:47.405Z,102906.41
2022-12-01T17:54:13.966Z,102900.34
2022-12-01T17:56:40.554Z,102903.84
2022-12-01T17:59:07.078Z,102900.28
2022-12-01T18:01:33.729Z,102896.69
2022-12-01T18:04:00.342Z,102905.53
2022-12-01T18:06:27.312Z,102910.94
2022-12-01T18:08:54.152Z,102909.91
2022-12-01T18:11:20.920Z,102913.38
2022-12-01T18:13:49.479Z,102908.84
2022-12-01T18:16:21.710Z,102914.28
2022-12-01T18:18:48.498Z,102910.81
2022-12-01T18:21:17.492Z,102909.09
2022-12-01T18:23:51.684Z,102908.78
2022-12-01T18:26:20.491Z,102917.84
2022-12-01T18:28:47.106Z,102923.97
2022-12-01T18:31:15.788Z,102921.25
2022-12-01T18:33:43.855Z,102915.94
2022-12-01T18:36:14.481Z,102915.81
2022-12-01T18:38:41.386Z,102908.78
2022-12-01T18:41:08.266Z,102903.38
2022-12-01T18:43:34.836Z,102902.50
2022-12-01T18:46:03.042Z,102903.28
2022-12-01T18:48:29.712Z,102906.00
2022-12-01T18:50:59.489Z,102908.66
2022-12-01T18:53:26.876Z,102903.38
2022-12-01T18:55:53.399Z,102899.66
2022-12-01T18:58:19.951Z,102899.78
2022-12-01T19:00:46.548Z,102897.91
2022-12-01T19:03:13.216Z,102897.91
2022-12-01T19:05:40.042Z,102901.47
2022-12-01T19:08:06.930Z,102904.97
2022-12-01T19:10:33.592Z,102901.34
2022-12-01T19:13:00.130Z,102905.88
2022-12-01T19:15:26.712Z,102892.44
2022-12-01T19:17:53.236Z,102899.44
2022-12-01T19:20:19.775Z,102891.38
2022-12-01T19:22:46.327Z,102893.09
2022-12-01T19:25:13.560Z,102889.44
2022-12-01T19:27:40.512Z,102889.59
2022-12-01T19:30:07.787Z,102883.22
2022-12-01T19:32:34.505Z,102883.28
2022-12-01T19:35:01.040Z,102883.09
2022-12-01T19:37:27.651Z,102886.56
2022-12-01T19:39:54.210Z,102897.47
2022-12-01T19:42:20.749Z,102893.84
2022-12-01T19:44:47.428Z,102879.81
2022-12-01T19:47:17.816Z,102886.78
2022-12-01T19:49:48.335Z,102884.84
2022-12-01T19:52:14.851Z,102887.50
2022-12-01T19:54:41.435Z,102890.13
2022-12-01T19:57:07.999Z,102895.50
2022-12-01T19:59:34.518Z,102879.34
2022-12-01T20:02:01.141Z,102882.97
2022-12-01T20:04:27.747Z,102881.22
2022-12-01T20:06:54.263Z,102888.19
2022-12-01T20:09:20.815Z,102883.75
2022-12-01T20:11:47.347Z,102896.97
2022-12-01T20:14:13.995Z,102886.28
2022-12-01T20:16:40.633Z,102882.84
2022-12-01T20:19:07.406Z,102881.16
2022-12-01T20:21:36.635Z,102880.84
2022-12-01T20:24:05.903Z,102888.00
2022-12-01T20:26:35.171Z,102887.78
2022-12-01T20:29:05.833Z,102885.31
2022-12-01T20:31:33.261Z,102887.03
2022-12-01T20:34:02.790Z,102886.19
2022-12-01T20:36:30.714Z,102883.59
2022-12-01T20:38:57.390Z,102882.38
2022-12-01T20:41:23.929Z,102878.88
2022-12-01T20:43:50.477Z,102873.31
2022-12-01T20:46:17.210Z,102879.63
2022-12-01T20:48:43.914Z,102882.56
2022-12-01T20:51:12.443Z,102873.53
2022-12-01T20:53:38.957Z,102873.63
2022-12-01T20:56:07.711Z,102877.22
2022-12-01T20:58:37.504Z,102874.47
2022-12-01T21:01:13.732Z,102876.22
2022-12-01T21:03:42.077Z,102880.91
2022-12-01T21:06:10.292Z,102879.09
2022-12-01T21:08:38.559Z,102880.69
2022-12-01T21:11:07.831Z,102887.91
2022-12-01T21:13:43.704Z,102897.72
2022-12-01T21:16:16.243Z,102893.38
2022-12-01T21:18:49.618Z,102889.72
2022-12-01T21:21:24.190Z,102884.44
2022-12-01T21:24:01.137Z,102891.53
2022-12-01T21:26:27.720Z,102888.84
2022-12-01T21:28:55.831Z,102883.50
2022-12-01T21:31:22.442Z,102883.59
2022-12-01T21:33:49.026Z,102883.47
2022-12-01T21:36:20.275Z,102868.91
2022-12-01T21:38:49.081Z,102866.25
2022-12-01T21:41:34.159Z,102862.84
2022-12-01T21:44:05.167Z,102862.22
2022-12-01T21:46:31.792Z,102868.28
2022-12-01T21:48:58.370Z,102864.66
2022-12-01T21:51:25.338Z,102863.03
2022-12-01T21:53:53.326Z,102864.50
2022-12-01T21:56:28.533Z,102866.81
2022-12-01T21:58:57.719Z,102863.19
2022-12-01T22:01:29.577Z,102869.47
2022-12-01T22:04:01.848Z,102876.56
2022-12-01T22:06:38.529Z,102869.03
2022-12-01T22:09:36.427Z,102873.31
2022-12-01T22:12:22.466Z,102872.28
2022-12-01T22:14:49.477Z,102878.63
2022-12-01T22:17:20.675Z,102867.97
2022-12-01T22:19:55.891Z,102860.75
2022-12-01T22:22:24.827Z,102865.38
2022-12-01T22:24:59.274Z,102857.16
2022-12-01T22:27:37.551Z,102861.41
2022-12-01T22:30:07.322Z,102858.91
2022-12-01T22:32:56.827Z,102857.28
2022-12-01T22:35:45.618Z,102864.09
2022-12-01T22:38:20.387Z,102865.81
2022-12-01T22:40:58.038Z,102864.25
2022-12-01T22:43:30.340Z,102862.19
2022-12-01T22:45:59.696Z,102858.66
2022-12-01T22:49:00.407Z,102859.63
2022-12-01T22:51:30.436Z,102856.22
2022-12-01T22:54:11.951Z,102857.16
2022-12-01T22:56:40.060Z,102857.09
2022-12-01T22:59:36.395Z,102858.97
2022-12-01T23:02:15.437Z,102852.72
2022-12-01T23:04:46.032Z,102858.75
2022-12-01T23:07:33.690Z,102860.72
2022-12-01T23:10:28.974Z,102857.22
2022-12-01T23:12:58.055Z,102862.06
2022-12-01T23:15:34.662Z,102862.28
2022-12-01T23:18:16.275Z,102855.16
2022-12-01T23:20:44.186Z,102854.03
2022-12-01T23:23:22.177Z,102853.22
2022-12-01T23:25:50.212Z,102855.94
2022-12-01T23:28:16.751Z,102847.97
2022-12-01T23:30:44.920Z,102851.63
2022-12-01T23:33:14.643Z,102847.97
2022-12-01T23:35:46.002Z,102851.50
2022-12-01T23:38:18.484Z,102848.72
2022-12-01T23:40:45.331Z,102847.00
2022-12-01T23:43:13.330Z,102850.34
2022-12-01T23:45:39.924Z,102858.03
2022-12-01T23:48:13.513Z,102851.50
2022-12-01T23:50:40.068Z,102847.84
2022-12-01T23:53:18.479Z,102843.28
2022-12-01T23:55:45.005Z,102849.41
2022-12-01T23:58:13.501Z,102847.88
